Time;durP1;ratioP1;P1;durP2;ratioP2;P2;SDS_P1;SDS_P2;PMS_P1;PMS_P2;Temp;Humidity;BMP_temperature;BMP_pressure;BME280_temperature;BME280_humidity;BME280_pressure;Samples;Min_cycle;Max_cycle;Signal;HPM_P1;HPM_P2
2021/07/30 00:00:22;;;;;;;5.93;5.35;;;22.00;99.90;;;;;;5095779;28;20024;-76
2021/07/30 00:02:48;;;;;;;5.70;5.20;;;22.00;99.90;;;;;;5095626;28;20027;-76
2021/07/30 00:05:14;;;;;;;6.07;4.90;;;22.00;99.90;;;;;;5095895;28;20016;-76
2021/07/30 00:07:40;;;;;;;6.28;5.30;;;22.00;99.90;;;;;;5095904;28;20028;-76
2021/07/30 00:10:06;;;;;;;6.78;4.90;;;22.00;99.90;;;;;;5084484;28;20096;-76
2021/07/30 00:12:31;;;;;;;11.32;5.95;;;22.00;99.90;;;;;;5075305;28;20039;-76
2021/07/30 00:14:57;;;;;;;6.40;5.15;;;22.00;99.90;;;;;;5075212;28;20415;-76
2021/07/30 00:17:23;;;;;;;5.22;4.72;;;22.00;99.90;;;;;;5075203;28;20100;-76
2021/07/30 00:19:49;;;;;;;6.57;4.88;;;22.00;99.90;;;;;;5075264;28;20028;-76
2021/07/30 00:22:14;;;;;;;5.93;5.32;;;22.00;99.90;;;;;;5075140;28;20020;-76
2021/07/30 00:24:40;;;;;;;6.05;5.40;;;22.00;99.90;;;;;;5074757;28;20020;-76
2021/07/30 00:27:06;;;;;;;5.60;5.00;;;22.00;99.90;;;;;;5074852;28;20081;-76
2021/07/30 00:29:31;;;;;;;6.65;5.32;;;22.10;99.90;;;;;;5082992;28;20089;-76
2021/07/30 00:31:57;;;;;;;9.68;5.07;;;22.00;99.90;;;;;;5095211;28;20059;-76
2021/07/30 00:34:23;;;;;;;6.03;5.07;;;22.00;99.90;;;;;;5095175;28;20035;-76
2021/07/30 00:36:48;;;;;;;5.80;5.25;;;22.10;99.90;;;;;;5094897;28;20039;-76
2021/07/30 00:39:14;;;;;;;5.45;4.95;;;22.10;99.90;;;;;;5094450;28;20399;-76
2021/07/30 00:41:40;;;;;;;7.15;5.63;;;22.10;99.90;;;;;;5094960;28;20354;-76
2021/07/30 00:44:09;;;;;;;5.68;5.03;;;22.10;99.90;;;;;;5094937;28;20024;-76
2021/07/30 00:46:36;;;;;;;6.35;5.75;;;22.10;99.90;;;;;;5095108;28;20473;-76
2021/07/30 00:49:02;;;;;;;6.63;5.70;;;22.10;99.90;;;;;;5086324;28;20029;-76
2021/07/30 00:51:29;;;;;;;6.53;5.72;;;22.20;99.90;;;;;;5076104;28;20020;-76
2021/07/30 00:53:56;;;;;;;8.32;6.15;;;22.20;99.90;;;;;;5074677;28;20017;-76
2021/07/30 00:56:23;;;;;;;6.63;6.03;;;22.20;99.90;;;;;;5074308;28;20028;-76
2021/07/30 00:58:49;;;;;;;6.70;6.00;;;22.20;99.90;;;;;;5074375;28;20459;-76
2021/07/30 01:01:18;;;;;;;8.45;6.15;;;22.20;99.90;;;;;;5074521;28;20031;-76
2021/07/30 01:03:44;;;;;;;6.63;5.75;;;22.20;99.90;;;;;;5074647;28;20059;-76
2021/07/30 01:06:11;;;;;;;6.65;6.05;;;22.20;99.90;;;;;;5074733;28;20024;-76
2021/07/30 01:08:38;;;;;;;6.40;5.38;;;22.20;99.90;;;;;;5074334;28;20074;-77
2021/07/30 01:11:04;;;;;;;6.75;6.05;;;22.10;99.90;;;;;;5074210;28;20094;-77
2021/07/30 01:13:30;;;;;;;6.40;5.72;;;22.10;99.90;;;;;;5073924;28;20063;-77
2021/07/30 01:15:56;;;;;;;8.77;6.15;;;22.10;99.90;;;;;;5074232;28;20047;-77
2021/07/30 01:18:22;;;;;;;6.55;5.80;;;22.10;99.90;;;;;;5074374;28;20363;-77
2021/07/30 01:21:02;;;;;;;8.00;5.88;;;22.10;99.90;;;;;;5074256;28;20462;-77
2021/07/30 01:23:28;;;;;;;;;;;22.10;99.90;;;;;;5074212;28;20048;-77
2021/07/30 01:25:54;;;;;;;7.68;5.60;;;22.00;99.90;;;;;;5074045;28;19950;-77
2021/07/30 01:28:21;;;;;;;7.25;5.75;;;21.90;99.90;;;;;;5073989;28;20021;-77
2021/07/30 01:30:47;;;;;;;6.53;5.93;;;21.90;99.90;;;;;;5074364;28;20020;-77
2021/07/30 01:33:12;;;;;;;6.88;5.35;;;21.90;99.90;;;;;;5074328;28;20028;-77
2021/07/30 01:35:38;;;;;;;6.35;5.70;;;21.90;99.90;;;;;;5073969;28;20024;-77
2021/07/30 01:38:04;;;;;;;10.10;5.80;;;21.80;99.90;;;;;;5073327;28;20487;-77
2021/07/30 01:40:29;;;;;;;6.68;5.43;;;21.80;99.90;;;;;;5073900;28;20035;-77
2021/07/30 01:42:55;;;;;;;6.00;5.40;;;21.80;99.90;;;;;;5073891;28;20031;-76
2021/07/30 01:45:20;;;;;;;8.65;6.10;;;21.70;99.90;;;;;;5074187;28;20332;-77
2021/07/30 01:47:46;;;;;;;6.47;5.70;;;21.70;99.90;;;;;;5074294;28;20036;-77
2021/07/30 01:50:12;;;;;;;7.05;5.80;;;21.70;99.90;;;;;;5074058;28;20459;-77
2021/07/30 01:52:37;;;;;;;5.85;5.32;;;21.70;99.90;;;;;;5073724;28;20078;-77
2021/07/30 01:55:04;;;;;;;6.90;5.30;;;21.80;99.90;;;;;;5072640;28;20462;-78
2021/07/30 01:57:29;;;;;;;6.22;5.63;;;21.70;99.90;;;;;;5073827;28;20029;-77
2021/07/30 01:59:55;;;;;;;6.20;5.60;;;21.70;99.90;;;;;;5074529;28;20508;-77
2021/07/30 02:02:21;;;;;;;6.55;5.65;;;21.70;99.90;;;;;;5077900;28;20494;-77
2021/07/30 02:04:46;;;;;;;5.35;4.90;;;21.60;99.90;;;;;;5077379;28;20063;-77
2021/07/30 02:07:12;;;;;;;6.07;5.47;;;21.40;99.90;;;;;;5077715;28;20029;-77
2021/07/30 02:09:38;;;;;;;6.38;5.53;;;21.40;99.90;;;;;;5077591;28;20032;-77
2021/07/30 02:12:04;;;;;;;7.38;5.95;;;21.40;99.90;;;;;;5077208;28;20025;-77
2021/07/30 02:14:30;;;;;;;7.38;6.22;;;21.40;99.90;;;;;;5077841;28;20050;-77
2021/07/30 02:17:00;;;;;;;7.03;6.32;;;21.30;99.90;;;;;;5077380;28;20032;-77
2021/07/30 02:19:26;;;;;;;7.78;6.03;;;21.30;99.90;;;;;;5077258;28;20024;-77
2021/07/30 02:21:54;;;;;;;7.00;6.30;;;21.30;99.90;;;;;;5077419;28;20028;-77
2021/07/30 02:24:21;;;;;;;7.15;6.45;;;21.20;99.90;;;;;;5077478;28;20020;-77
2021/07/30 02:26:47;;;;;;;7.35;6.53;;;21.20;99.90;;;;;;5076890;28;20418;-77
2021/07/30 02:29:13;;;;;;;6.53;5.90;;;21.20;99.90;;;;;;5077377;28;20483;-77
2021/07/30 02:31:39;;;;;;;7.10;6.50;;;21.20;99.90;;;;;;5078775;28;20434;-77
2021/07/30 02:34:05;;;;;;;9.48;7.13;;;21.30;99.90;;;;;;5076808;28;20035;-77
2021/07/30 02:36:31;;;;;;;7.47;6.68;;;21.30;99.90;;;;;;5076719;28;20104;-77
2021/07/30 02:38:57;;;;;;;6.80;6.15;;;21.30;99.90;;;;;;5076501;28;20045;-77
2021/07/30 02:41:22;;;;;;;6.85;6.20;;;21.30;99.90;;;;;;5077240;28;20096;-77
2021/07/30 02:43:48;;;;;;;7.13;6.43;;;21.40;99.90;;;;;;5076631;28;20071;-77
2021/07/30 02:46:16;;;;;;;6.45;5.85;;;21.40;99.90;;;;;;5076612;28;20029;-77
2021/07/30 02:48:46;;;;;;;7.07;6.10;;;21.40;99.90;;;;;;5076496;28;20471;-77
2021/07/30 02:51:13;;;;;;;5.80;5.30;;;21.40;99.90;;;;;;5077020;28;20036;-77
2021/07/30 02:53:39;;;;;;;7.97;5.63;;;21.40;99.90;;;;;;5076873;28;20032;-77
2021/07/30 02:56:05;;;;;;;7.25;5.72;;;21.40;99.90;;;;;;5076913;28;20021;-77
2021/07/30 02:58:31;;;;;;;7.05;5.95;;;21.40;99.90;;;;;;5077099;28;20052;-79
2021/07/30 03:00:58;;;;;;;7.40;6.07;;;21.50;99.90;;;;;;5096551;28;20073;-77
2021/07/30 03:03:23;;;;;;;8.35;5.72;;;21.50;99.90;;;;;;5096861;28;20099;-77
2021/07/30 03:05:50;;;;;;;7.55;5.90;;;21.50;99.90;;;;;;5096832;28;20052;-77
2021/07/30 03:08:15;;;;;;;6.80;6.20;;;21.50;99.90;;;;;;5090567;28;20039;-77
2021/07/30 03:10:41;;;;;;;7.15;6.55;;;21.50;99.90;;;;;;5096209;28;20027;-77
2021/07/30 03:13:07;;;;;;;7.68;6.45;;;21.50;99.90;;;;;;5096317;28;20028;-77
2021/07/30 03:15:33;;;;;;;7.45;6.13;;;21.50;99.90;;;;;;5096893;28;20378;-77
2021/07/30 03:17:58;;;;;;;8.18;6.63;;;21.60;99.90;;;;;;5096556;28;20028;-77
2021/07/30 03:20:24;;;;;;;16.65;12.50;;;21.60;99.90;;;;;;5077961;28;20070;-77
2021/07/30 03:22:49;;;;;;;29.73;22.35;;;21.60;99.90;;;;;;5076469;28;20099;-77
2021/07/30 03:25:15;;;;;;;15.68;12.48;;;21.70;99.90;;;;;;5075886;28;20103;-77
2021/07/30 03:27:42;;;;;;;14.32;10.75;;;21.70;99.90;;;;;;5076106;28;20426;-78
2021/07/30 03:30:11;;;;;;;13.55;11.43;;;21.70;99.90;;;;;;5077630;28;20027;-77
2021/07/30 03:32:37;;;;;;;12.50;9.17;;;21.70;99.90;;;;;;5095864;28;20028;-78
2021/07/30 03:35:03;;;;;;;9.93;8.93;;;21.80;99.90;;;;;;5080563;28;20074;-77
2021/07/30 03:37:28;;;;;;;14.75;11.68;;;21.80;99.90;;;;;;5075417;28;20043;-77
2021/07/30 03:39:54;;;;;;;9.18;8.23;;;21.80;99.90;;;;;;5076183;28;20031;-78
2021/07/30 18:08:18;;;;;;;23.20;13.13;;;25.80;93.40;;;;;;5112235;27;20385;-80
2021/07/30 18:10:43;;;;;;;23.60;18.95;;;25.40;94.90;;;;;;5111607;28;20077;-80
2021/07/30 18:13:09;;;;;;;29.85;24.20;;;25.40;95.70;;;;;;5110226;28;20024;-79
2021/07/30 18:15:35;;;;;;;44.45;34.95;;;25.40;96.30;;;;;;5111911;28;20024;-84
2021/07/30 18:18:01;;;;;;;30.80;25.58;;;25.30;96.90;;;;;;5111247;28;20103;-78
2021/07/30 18:20:28;;;;;;;48.47;29.65;;;25.40;97.10;;;;;;5111436;28;20086;-76
2021/07/30 18:22:53;;;;;;;26.80;20.05;;;25.40;97.10;;;;;;5111360;28;20016;-78
2021/07/30 18:25:19;;;;;;;44.35;34.95;;;25.40;97.00;;;;;;5111198;28;20032;-79
2021/07/30 18:27:45;;;;;;;82.40;66.13;;;25.40;97.20;;;;;;5111034;28;20078;-79
2021/07/30 18:30:11;;;;;;;69.15;59.63;;;25.40;97.30;;;;;;5111074;28;20024;-79
2021/07/30 18:32:37;;;;;;;34.88;28.73;;;25.50;97.40;;;;;;5111091;28;20368;-78
2021/07/30 18:35:03;;;;;;;26.85;22.30;;;25.50;97.30;;;;;;5110946;28;20016;-79
2021/07/30 18:37:28;;;;;;;37.65;30.65;;;25.50;97.20;;;;;;5110999;28;20357;-78
2021/07/30 18:39:54;;;;;;;52.90;30.60;;;25.60;97.20;;;;;;5108953;28;20031;-78
2021/07/30 18:42:20;;;;;;;38.70;28.88;;;25.50;97.20;;;;;;5110975;28;20107;-78
2021/07/30 18:44:45;;;;;;;28.80;24.88;;;25.50;97.30;;;;;;5110931;28;20024;-79
2021/07/30 18:47:13;;;;;;;55.20;44.38;;;25.60;97.30;;;;;;5110841;28;20023;-78
2021/07/30 18:49:39;;;;;;;56.78;50.55;;;25.50;97.30;;;;;;5111461;28;20043;-82
2021/07/30 18:52:05;;;;;;;53.47;44.95;;;25.40;97.20;;;;;;5110878;28;20016;-81
2021/07/30 18:54:33;;;;;;;36.97;30.05;;;25.40;97.30;;;;;;5110493;28;20073;-81
2021/07/30 18:56:59;;;;;;;32.35;21.58;;;25.40;97.20;;;;;;5111407;28;20424;-80
2021/07/30 18:59:25;;;;;;;21.80;16.88;;;25.30;97.30;;;;;;5110802;28;20039;-84
2021/07/30 19:01:51;;;;;;;24.67;17.05;;;25.30;97.30;;;;;;5110627;28;20485;-83
2021/07/30 19:04:16;;;;;;;24.75;16.13;;;25.30;97.50;;;;;;5109486;28;20024;-79
2021/07/30 19:06:42;;;;;;;19.02;15.13;;;25.20;97.50;;;;;;5109811;28;20132;-79
2021/07/30 19:09:14;;;;;;;20.83;15.25;;;25.20;97.70;;;;;;5110021;28;20094;-85
2021/07/30 19:11:40;;;;;;;30.98;16.70;;;25.20;97.60;;;;;;5106741;28;20024;-84
2021/07/30 19:14:06;;;;;;;44.15;30.33;;;25.20;97.70;;;;;;5110399;28;20025;-84
2021/07/30 19:16:34;;;;;;;30.42;23.92;;;25.10;97.80;;;;;;5109236;28;20035;-81
2021/07/30 19:19:00;;;;;;;84.65;68.85;;;25.10;97.80;;;;;;5100286;28;20114;-82
2021/07/30 19:21:26;;;;;;;57.40;45.72;;;25.00;97.80;;;;;;5095454;28;20111;-83
2021/07/30 19:23:52;;;;;;;47.67;37.95;;;25.00;97.80;;;;;;5095482;28;20117;-81
2021/07/30 19:26:18;;;;;;;46.88;36.45;;;25.00;97.80;;;;;;5096485;28;20036;-82
2021/07/30 19:28:43;;;;;;;58.80;46.08;;;25.00;98.10;;;;;;5096521;28;20098;-84
2021/07/30 19:31:09;;;;;;;51.20;38.67;;;25.00;98.10;;;;;;5097019;28;20028;-96
2021/07/30 19:33:34;;;;;;;50.63;37.50;;;24.90;98.20;;;;;;5095413;28;20038;-81
2021/07/30 19:36:00;;;;;;;44.80;32.28;;;24.90;98.20;;;;;;5101051;28;20024;-82
2021/07/30 19:38:26;;;;;;;31.73;24.20;;;24.80;98.20;;;;;;5110450;28;20031;-78
2021/07/30 19:40:52;;;;;;;29.35;20.55;;;24.90;98.20;;;;;;5095419;28;20459;-82
2021/07/30 19:43:17;;;;;;;23.65;18.05;;;24.90;98.30;;;;;;5095969;28;20046;-81
2021/07/30 19:45:43;;;;;;;26.45;17.95;;;24.80;98.30;;;;;;5095643;28;20420;-81
2021/07/30 19:48:09;;;;;;;22.90;18.67;;;24.80;98.40;;;;;;5095783;28;20043;-81
2021/07/30 19:50:34;;;;;;;22.95;17.40;;;24.80;98.50;;;;;;5095995;28;20462;-80
2021/07/30 19:53:00;;;;;;;23.17;17.48;;;24.70;98.50;;;;;;5096218;28;20024;-80
2021/07/30 19:55:28;;;;;;;21.77;17.08;;;24.70;98.60;;;;;;5095915;28;20377;-80
2021/07/30 19:57:56;;;;;;;23.15;16.42;;;24.70;98.70;;;;;;5095747;28;20474;-80
2021/07/30 20:00:25;;;;;;;24.35;16.63;;;24.60;99.00;;;;;;5094423;28;20123;-80
2021/07/30 20:02:51;;;;;;;31.17;16.70;;;24.60;98.80;;;;;;5095851;28;20028;-80
2021/07/30 20:05:20;;;;;;;28.23;16.45;;;24.60;98.90;;;;;;5095882;28;20097;-80
2021/07/30 20:07:46;;;;;;;19.38;16.13;;;24.50;99.10;;;;;;5095214;28;20127;-80
2021/07/30 20:10:12;;;;;;;23.67;17.38;;;24.50;99.20;;;;;;5095068;28;20111;-80
2021/07/30 20:12:37;;;;;;;23.65;17.45;;;24.50;99.30;;;;;;5095744;28;20024;-80
2021/07/30 20:15:04;;;;;;;22.85;17.17;;;24.40;99.40;;;;;;5095678;28;20016;-85
2021/07/30 20:17:30;;;;;;;22.30;18.08;;;24.40;99.50;;;;;;5094042;28;20421;-86
2021/07/30 20:19:56;;;;;;;22.38;17.85;;;24.40;99.60;;;;;;5094300;28;20024;-88
2021/07/30 20:22:22;;;;;;;43.28;34.15;;;24.30;99.70;;;;;;5095380;28;20050;-87
2021/07/30 20:24:48;;;;;;;29.45;21.92;;;24.30;99.90;;;;;;5083111;28;20107;-86
2021/07/30 20:27:15;;;;;;;32.60;27.13;;;24.20;99.90;;;;;;5075110;28;20052;-87
2021/07/30 20:29:40;;;;;;;36.30;28.52;;;24.20;99.90;;;;;;5073278;28;20025;-87
2021/07/30 20:32:06;;;;;;;51.25;45.67;;;24.20;99.90;;;;;;5073927;28;20031;-84
2021/07/30 20:34:32;;;;;;;40.03;32.08;;;24.20;99.90;;;;;;5078314;28;20021;-84
2021/07/30 20:36:59;;;;;;;29.77;20.05;;;24.20;99.90;;;;;;5093783;28;20039;-83
2021/07/30 20:39:25;;;;;;;20.65;17.55;;;24.20;99.90;;;;;;5093843;28;20374;-83
2021/07/30 20:41:51;;;;;;;21.38;16.95;;;24.10;99.90;;;;;;5094925;28;20031;-83
2021/07/30 20:44:16;;;;;;;20.60;16.75;;;24.10;99.90;;;;;;5094962;28;20478;-83
2021/07/30 20:46:42;;;;;;;21.23;15.73;;;24.10;99.90;;;;;;5094870;28;20482;-83
2021/07/30 20:49:09;;;;;;;20.13;16.30;;;24.10;99.90;;;;;;5094953;28;20471;-83
2021/07/30 20:51:35;;;;;;;22.30;16.35;;;24.00;99.90;;;;;;5093669;28;20111;-83
2021/07/30 20:54:00;;;;;;;19.65;15.50;;;24.00;99.90;;;;;;5093489;28;20026;-83
2021/07/30 20:56:26;;;;;;;17.70;14.52;;;24.00;99.90;;;;;;5094760;28;20032;-83
2021/07/30 20:58:53;;;;;;;22.00;15.75;;;24.00;99.90;;;;;;5087262;28;20075;-84
2021/07/30 21:01:27;;;;;;;18.88;15.38;;;24.00;99.90;;;;;;5074912;28;20081;-84
2021/07/30 21:03:55;;;;;;;19.38;16.45;;;23.90;99.90;;;;;;5074858;28;20021;-82
2021/07/30 21:06:21;;;;;;;41.60;32.22;;;23.80;99.90;;;;;;5073096;28;20072;-78
2021/07/30 21:08:46;;;;;;;28.90;22.80;;;23.80;99.90;;;;;;5074610;28;20055;-84
2021/07/30 21:11:12;;;;;;;19.52;16.45;;;23.80;99.90;;;;;;5073405;28;20032;-85
2021/07/30 21:13:38;;;;;;;24.58;20.60;;;23.70;99.90;;;;;;5073197;28;20020;-83
2021/07/30 21:16:07;;;;;;;18.45;15.35;;;23.70;99.90;;;;;;5074047;28;20020;-80
